Terminal Aerodrome Forecast
Issued by NWS Louisville, KY

Home | Current Version | Previous Version | Text Only | Print | Product List | Glossary On
Versions: 1 2 3 4 5 6 7 8 9 10 11 12 13 14 15 16 17 18
000
FTUS43 KLMK 271725
TAFLEX
TAF
KLEX 271725Z 2718/2818 28004KT P6SM SCT025
     FM272000 27006KT P6SM VCTS SCT030CB BKN150
     FM272300 VRB03KT P6SM BKN250
     FM280700 VRB03KT 4SM BR BKN020 PROB30 2814/2818 2SM TSRA SCT007
      BKN015CB=

USA.gov is the U.S. government's official web portal to all federal, state and local government web resources and services.